Time;durP1;ratioP1;P1;durP2;ratioP2;P2;SDS_P1;SDS_P2;PMS_P1;PMS_P2;Temp;Humidity;BMP_temperature;BMP_pressure;BME280_temperature;BME280_humidity;BME280_pressure;Samples;Min_cycle;Max_cycle;Signal;HPM_P1;HPM_P2
2022/10/17 00:00:37;;;;;;;1999.90;999.90;;;12.70;99.90;;;;;;5011806;28;20049;-90
2022/10/17 00:03:02;;;;;;;1999.90;999.90;;;12.70;99.90;;;;;;4995251;28;20081;-90
2022/10/17 00:05:29;;;;;;;1999.90;999.90;;;12.70;99.90;;;;;;5012441;28;20469;-89
2022/10/17 00:07:54;;;;;;;1999.90;999.90;;;13.60;99.90;;;;;;5012706;28;20053;-89
2022/10/17 00:10:20;;;;;;;1999.90;999.90;;;12.80;99.90;;;;;;5012576;28;20475;-90
2022/10/17 00:12:46;;;;;;;1999.90;999.90;;;12.80;99.90;;;;;;5015072;28;20057;-90
2022/10/17 00:15:16;;;;;;;1999.90;999.90;;;13.50;1.00;;;;;;5016559;28;20041;-90
2022/10/17 00:17:42;;;;;;;1999.90;999.90;;;12.90;1.00;;;;;;5015161;28;20141;-91
2022/10/17 00:20:08;;;;;;;1999.90;999.90;;;13.00;1.00;;;;;;5015772;28;20077;-86
2022/10/17 00:22:34;;;;;;;1999.90;999.90;;;13.00;1.00;;;;;;5016394;28;20125;-90
2022/10/17 00:24:59;;;;;;;1999.90;999.90;;;13.00;1.00;;;;;;5016542;28;20038;-90
2022/10/17 00:27:25;;;;;;;1999.90;999.90;;;13.10;1.00;;;;;;5015849;28;20518;-90
2022/10/17 00:29:51;;;;;;;1999.90;999.90;;;13.20;1.00;;;;;;5016474;28;20064;-91
2022/10/17 00:32:18;;;;;;;1999.90;999.90;;;13.20;1.00;;;;;;5014983;28;20486;-91
2022/10/17 00:34:44;;;;;;;1999.90;999.90;;;13.30;1.00;;;;;;5016348;28;20053;-90
2022/10/17 00:37:10;;;;;;;1999.90;999.90;;;13.30;1.00;;;;;;5016679;28;20483;-86
2022/10/17 00:39:36;;;;;;;1999.90;999.90;;;13.40;99.90;;;;;;5016907;28;20057;-89
2022/10/17 00:42:01;;;;;;;1999.90;999.90;;;13.40;99.90;;;;;;5014997;28;20126;-90
2022/10/17 00:44:30;;;;;;;1999.90;999.90;;;13.50;99.90;;;;;;5015867;28;20471;-90
2022/10/17 00:46:57;;;;;;;1999.90;999.90;;;13.50;99.90;;;;;;5015174;28;20046;-90
2022/10/17 00:49:25;;;;;;;1999.90;999.90;;;13.50;99.90;;;;;;5015944;28;20421;-90
2022/10/17 00:51:57;;;;;;;1999.90;999.90;;;13.60;99.90;;;;;;5014926;28;20092;-89
2022/10/17 00:54:29;;;;;;;1999.90;999.90;;;13.60;99.90;;;;;;5015861;28;20042;-90
2022/10/17 00:56:55;;;;;;;1999.90;999.90;;;13.70;99.90;;;;;;5015699;28;20049;-90
2022/10/17 00:59:22;;;;;;;1999.90;999.90;;;13.70;99.90;;;;;;5015662;28;20045;-88
2022/10/17 01:02:00;;;;;;;1999.90;999.90;;;13.80;99.90;;;;;;5015820;28;20049;-89
2022/10/17 01:04:25;;;;;;;1999.90;999.90;;;13.80;99.90;;;;;;5015688;28;20371;-90
2022/10/17 01:06:51;;;;;;;1999.90;999.90;;;13.90;89.30;;;;;;5015874;28;20080;-88
2022/10/17 01:09:17;;;;;;;1999.90;999.90;;;13.90;35.30;;;;;;5014391;28;20065;-89
2022/10/17 01:12:10;;;;;;;1999.90;999.90;;;14.00;1.00;;;;;;5015313;28;20058;-90
2022/10/17 01:14:39;;;;;;;1999.90;999.90;;;14.00;1.00;;;;;;5015435;28;20053;-90
2022/10/17 01:17:19;;;;;;;1999.90;999.90;;;14.10;1.00;;;;;;5015625;28;20046;-91
2022/10/17 01:20:22;;;;;;;1999.90;999.90;;;14.20;1.00;;;;;;5015568;28;20474;-91
2022/10/17 01:23:15;;;;;;;1999.90;999.90;;;14.20;1.00;;;;;;5013935;28;20095;-89
2022/10/17 01:25:51;;;;;;;1999.90;999.90;;;14.30;1.00;;;;;;4998118;28;20049;-90
2022/10/17 01:28:44;;;;;;;1999.90;999.90;;;14.30;99.90;;;;;;5014963;28;20052;-84
2022/10/17 01:31:16;;;;;;;1999.90;999.90;;;14.30;99.90;;;;;;5015319;28;20054;-90
2022/10/17 01:33:41;;;;;;;1999.90;999.90;;;14.40;99.90;;;;;;5015145;28;20038;-90
2022/10/17 01:36:09;;;;;;;1999.90;999.90;;;14.40;99.90;;;;;;5015089;28;20045;-92
2022/10/17 01:38:43;;;;;;;;;;;14.40;99.90;;;;;;5015260;28;20057;-90
2022/10/17 01:41:34;;;;;;;1999.90;999.90;;;14.50;99.90;;;;;;5015263;28;19929;-91
2022/10/17 01:44:04;;;;;;;1999.90;999.90;;;14.50;99.90;;;;;;5014896;28;20470;-89
2022/10/17 01:46:42;;;;;;;1999.90;999.90;;;14.50;99.90;;;;;;5013610;28;20491;-91
2022/10/17 01:49:10;;;;;;;1999.90;999.90;;;14.50;99.90;;;;;;5015108;28;20061;-90
2022/10/17 01:51:39;;;;;;;1999.90;999.90;;;14.40;99.90;;;;;;5014609;28;20052;-89
2022/10/17 01:54:28;;;;;;;1999.90;999.90;;;14.60;99.90;;;;;;5014817;28;20143;-90
2022/10/17 01:57:00;;;;;;;1999.90;999.90;;;14.40;99.90;;;;;;5014546;28;20092;-90
2022/10/17 01:59:40;;;;;;;1999.90;999.90;;;14.40;99.90;;;;;;5014637;28;20046;-90
2022/10/17 02:02:08;;;;;;;1999.90;999.90;;;14.40;99.90;;;;;;5015030;28;20050;-91
2022/10/17 02:04:34;;;;;;;;;;;14.30;99.90;;;;;;5014707;28;20054;-93
2022/10/17 02:07:11;;;;;;;1999.90;999.90;;;14.30;1.00;;;;;;5014654;28;20007;-90
2022/10/17 02:09:37;;;;;;;1999.90;999.90;;;14.30;99.90;;;;;;5014324;28;20054;-90
2022/10/17 02:12:14;;;;;;;1999.90;999.90;;;14.30;1.00;;;;;;5014247;28;20053;-90
2022/10/17 02:14:55;;;;;;;1999.90;999.90;;;14.30;1.00;;;;;;5013358;28;20403;-90
2022/10/17 02:17:44;;;;;;;1999.90;999.90;;;14.30;1.00;;;;;;5014474;28;20089;-92
2022/10/17 02:20:44;;;;;;;1999.90;999.90;;;14.20;1.00;;;;;;5013472;28;20509;-89
2022/10/17 02:23:24;;;;;;;1999.90;999.90;;;14.30;2.00;;;;;;4947966;28;20053;-91
2022/10/17 02:26:05;;;;;;;1999.90;999.90;;;14.30;27.10;;;;;;5015196;28;20045;-90
2022/10/17 02:28:45;;;;;;;1999.90;999.90;;;14.20;39.10;;;;;;5014311;28;20050;-91
2022/10/17 02:31:24;;;;;;;1999.90;999.90;;;14.20;77.70;;;;;;5015130;28;20053;-91
2022/10/17 02:33:59;;;;;;;1999.90;999.90;;;14.30;82.20;;;;;;5014499;28;20049;-89
2022/10/17 02:36:31;;;;;;;1999.90;999.90;;;14.20;99.90;;;;;;5014439;28;20080;-85
2022/10/17 02:39:00;;;;;;;1999.90;999.90;;;14.20;99.90;;;;;;5014518;28;20085;-91
2022/10/17 02:41:26;;;;;;;1999.90;999.90;;;14.20;99.90;;;;;;5014661;28;20474;-86
2022/10/17 02:43:52;;;;;;;1999.90;999.90;;;14.20;99.90;;;;;;5014040;28;20525;-91
2022/10/17 02:46:22;;;;;;;1999.90;999.90;;;14.20;99.90;;;;;;5014837;28;20482;-89
2022/10/17 02:49:28;;;;;;;1999.90;999.90;;;14.10;99.90;;;;;;5013582;28;20509;-88
2022/10/17 02:52:09;;;;;;;1999.90;999.90;;;14.20;99.90;;;;;;4975210;28;20096;-90
2022/10/17 02:54:51;;;;;;;1999.90;999.90;;;14.20;1.00;;;;;;5013089;28;20053;-90
2022/10/17 02:57:35;;;;;;;1999.90;999.90;;;14.20;1.00;;;;;;5013482;28;20050;-89
2022/10/17 03:00:03;;;;;;;1999.90;999.90;;;14.20;1.00;;;;;;5012585;28;20395;-90
2022/10/17 03:02:47;;;;;;;1999.90;999.90;;;14.20;1.00;;;;;;5013609;28;20479;-86
2022/10/17 03:05:18;;;;;;;1999.90;999.90;;;14.20;1.00;;;;;;5013371;28;20057;-89
2022/10/17 03:07:44;;;;;;;1999.90;999.90;;;14.20;1.00;;;;;;5012194;28;20143;-90
2022/10/17 03:10:10;;;;;;;1999.90;999.90;;;14.10;5.70;;;;;;5013661;28;20050;-89
2022/10/17 03:12:36;;;;;;;1999.90;999.90;;;14.20;97.50;;;;;;5012807;28;20100;-89
2022/10/17 03:15:03;;;;;;;1999.90;999.90;;;14.20;99.90;;;;;;5013521;28;20360;-90
2022/10/17 03:17:28;;;;;;;1999.90;999.90;;;14.30;99.90;;;;;;5013413;28;20188;-88
2022/10/17 03:19:54;;;;;;;1999.90;999.90;;;14.20;99.90;;;;;;5013012;28;20133;-90
2022/10/17 03:22:20;;;;;;;1999.90;999.90;;;14.30;99.90;;;;;;5012017;28;20053;-90
2022/10/17 03:24:45;;;;;;;1999.90;999.90;;;14.20;99.90;;;;;;5012676;28;20045;-89
2022/10/17 03:27:11;;;;;;;1999.90;999.90;;;14.30;99.90;;;;;;5011713;28;20038;-91
2022/10/17 03:29:37;;;;;;;1999.90;999.90;;;14.30;1.00;;;;;;5012887;28;20077;-89
2022/10/17 03:32:02;;;;;;;1999.90;999.90;;;14.30;99.90;;;;;;5013533;28;20057;-90
2022/10/17 03:34:28;;;;;;;1999.90;999.90;;;14.30;99.90;;;;;;5013099;28;20071;-90
2022/10/17 03:36:54;;;;;;;1999.90;999.90;;;14.40;99.90;;;;;;5011896;28;20100;-89
2022/10/17 03:39:19;;;;;;;1999.90;999.90;;;14.40;99.90;;;;;;5013229;28;20041;-89
2022/10/17 03:41:45;;;;;;;1999.90;999.90;;;14.40;99.90;;;;;;5012444;28;20088;-89
2022/10/17 03:44:11;;;;;;;1999.90;999.90;;;14.40;99.90;;;;;;5011925;28;20422;-90
2022/10/17 03:46:36;;;;;;;1999.90;999.90;;;14.40;99.90;;;;;;5012825;28;20100;-88
2022/10/17 03:49:02;;;;;;;1999.90;999.90;;;14.40;99.90;;;;;;5012027;28;20046;-89
2022/10/17 03:51:28;;;;;;;1999.90;999.90;;;14.40;99.90;;;;;;4995865;28;20104;-90
2022/10/17 03:53:54;;;;;;;1999.90;999.90;;;14.40;99.90;;;;;;5012951;28;20041;-89
2022/10/17 03:56:22;;;;;;;1999.90;999.90;;;14.40;99.90;;;;;;5012954;28;20049;-89
2022/10/17 03:58:48;;;;;;;1999.90;999.90;;;14.40;99.90;;;;;;5012129;28;20046;-88
2022/10/17 04:01:15;;;;;;;1999.90;999.90;;;14.50;1.00;;;;;;5013028;28;20046;-89
2022/10/17 04:03:42;;;;;;;1999.90;999.90;;;14.60;1.00;;;;;;5012524;28;20053;-90
2022/10/17 04:06:09;;;;;;;1999.90;999.90;;;14.60;42.10;;;;;;5011599;28;20064;-88
2022/10/17 04:08:35;;;;;;;1999.90;999.90;;;14.70;67.30;;;;;;5012538;28;20483;-89
2022/10/17 04:11:03;;;;;;;1999.90;999.90;;;15.30;99.90;;;;;;5012750;28;20048;-91
2022/10/17 04:13:28;;;;;;;;;;;14.90;99.90;;;;;;5012733;28;20045;-88
2022/10/17 04:15:59;;;;;;;1999.90;999.90;;;15.00;1.00;;;;;;5011500;28;19921;-90
2022/10/17 04:18:24;;;;;;;1999.90;999.90;;;15.00;99.90;;;;;;5012832;28;20072;-90
2022/10/17 04:20:50;;;;;;;1999.90;999.90;;;15.10;99.90;;;;;;5011546;28;20050;-90
2022/10/17 04:23:16;;;;;;;1999.90;999.90;;;15.20;99.90;;;;;;5012663;28;20045;-91
2022/10/17 04:25:42;;;;;;;1999.90;999.90;;;15.20;99.90;;;;;;5012658;28;20050;-90
2022/10/17 04:28:08;;;;;;;1999.90;999.90;;;15.30;99.90;;;;;;5012538;28;20103;-90
2022/10/17 04:30:33;;;;;;;1999.90;999.90;;;15.40;99.90;;;;;;5012924;28;20049;-89
2022/10/17 04:32:59;;;;;;;1999.90;999.90;;;15.50;99.90;;;;;;5011364;28;20058;-88
2022/10/17 04:35:25;;;;;;;1999.90;999.90;;;15.50;99.90;;;;;;5011673;28;20054;-89
2022/10/17 04:37:50;;;;;;;1999.90;999.90;;;15.50;1.00;;;;;;5011030;28;20100;-90
2022/10/17 04:40:16;;;;;;;1999.90;999.90;;;15.50;1.00;;;;;;5012731;28;20058;-92
2022/10/17 04:42:42;;;;;;;1999.90;999.90;;;15.70;1.00;;;;;;5010846;28;20054;-89
2022/10/17 04:45:08;;;;;;;1999.90;999.90;;;15.70;99.90;;;;;;5012567;28;20078;-89
2022/10/17 04:47:34;;;;;;;1999.90;999.90;;;15.70;99.90;;;;;;4995033;28;20560;-89
2022/10/17 04:49:59;;;;;;;1999.90;999.90;;;15.80;99.90;;;;;;5011938;28;20089;-89
2022/10/17 04:52:25;;;;;;;1999.90;999.90;;;15.80;99.90;;;;;;5012356;28;20046;-90
2022/10/17 04:54:51;;;;;;;1999.90;999.90;;;15.90;99.90;;;;;;5012102;28;20065;-90
2022/10/17 04:57:18;;;;;;;1999.90;999.90;;;15.90;99.90;;;;;;5012260;28;20442;-89
2022/10/17 04:59:44;;;;;;;1999.90;999.90;;;16.00;99.90;;;;;;5014497;28;20402;-89
2022/10/17 05:02:10;;;;;;;1999.90;999.90;;;16.00;60.10;;;;;;5015609;28;20054;-88
2022/10/17 05:04:36;;;;;;;1999.90;999.90;;;16.00;1.00;;;;;;5015544;28;20502;-90
2022/10/17 05:07:02;;;;;;;1999.90;999.90;;;15.90;1.00;;;;;;5015645;28;20101;-90
2022/10/17 05:09:28;;;;;;;1999.90;999.90;;;15.90;2.60;;;;;;5015885;28;20046;-90
2022/10/17 05:11:54;;;;;;;1999.90;999.90;;;15.90;1.00;;;;;;5015465;28;20167;-90
2022/10/17 05:14:20;;;;;;;1999.90;999.90;;;15.90;44.90;;;;;;5014575;28;20053;-89
2022/10/17 05:16:45;;;;;;;1999.90;999.90;;;15.90;68.10;;;;;;5014203;28;20053;-88
2022/10/17 05:19:11;;;;;;;1999.90;999.90;;;15.90;91.60;;;;;;5015721;28;20081;-88
2022/10/17 05:21:37;;;;;;;1999.90;999.90;;;15.90;99.90;;;;;;5015574;28;20069;-89
2022/10/17 05:24:08;;;;;;;1999.90;999.90;;;16.00;99.90;;;;;;5013992;28;20130;-88
2022/10/17 05:26:34;;;;;;;1999.90;999.90;;;16.00;99.90;;;;;;5015605;28;20058;-87
2022/10/17 05:29:04;;;;;;;1999.90;999.90;;;16.00;99.90;;;;;;5015965;28;20068;-90
2022/10/17 05:31:30;;;;;;;1999.90;999.90;;;16.00;99.90;;;;;;5015597;28;20169;-86
2022/10/17 05:34:02;;;;;;;1999.90;999.90;;;16.00;99.90;;;;;;5014822;28;20041;-85
2022/10/17 05:36:28;;;;;;;1999.90;999.90;;;16.00;99.90;;;;;;5014455;28;20597;-86
2022/10/17 05:38:54;;;;;;;1999.90;999.90;;;16.00;96.30;;;;;;5014865;28;20095;-86
2022/10/17 05:41:20;;;;;;;1999.90;999.90;;;16.00;99.90;;;;;;5015163;28;20132;-85
2022/10/17 05:43:45;;;;;;;1999.90;999.90;;;15.90;99.90;;;;;;5014312;28;20042;-85
2022/10/17 05:46:11;;;;;;;1999.90;999.90;;;16.00;99.90;;;;;;5015148;28;20510;-86
2022/10/17 05:48:37;;;;;;;1999.90;999.90;;;16.00;99.90;;;;;;5014942;28;20501;-86
2022/10/17 05:51:07;;;;;;;1999.90;999.90;;;16.00;99.90;;;;;;5014822;28;20056;-85
2022/10/17 05:53:35;;;;;;;1999.90;999.90;;;16.00;99.90;;;;;;5014838;28;20499;-85
2022/10/17 05:56:02;;;;;;;;;;;16.00;99.90;;;;;;5014041;28;20380;-85
2022/10/17 05:58:28;;;;;;;1999.90;999.90;;;16.00;99.90;;;;;;5014503;28;20277;-85
2022/10/17 06:01:03;;;;;;;1999.90;999.90;;;16.00;99.90;;;;;;5013528;28;20046;-86
2022/10/17 06:03:28;;;;;;;1999.90;999.90;;;16.00;99.90;;;;;;5014726;28;20092;-86
2022/10/17 06:05:55;;;;;;;1999.90;999.90;;;16.00;99.90;;;;;;4996822;28;20057;-85
2022/10/17 06:08:21;;;;;;;1999.90;999.90;;;16.10;99.90;;;;;;5014530;28;20048;-85
2022/10/17 06:10:48;;;;;;;1999.90;999.90;;;16.10;99.90;;;;;;5013300;28;20065;-85
2022/10/17 06:13:15;;;;;;;1999.90;999.90;;;16.10;99.90;;;;;;5014111;28;20054;-86
2022/10/17 06:15:43;;;;;;;1999.90;999.90;;;16.20;99.90;;;;;;4997353;28;20090;-85
2022/10/17 06:18:09;;;;;;;1999.90;999.90;;;16.20;99.90;;;;;;4996825;28;20064;-86
2022/10/17 06:20:36;;;;;;;1999.90;999.90;;;16.20;99.90;;;;;;5014479;28;20532;-85
2022/10/17 06:23:02;;;;;;;1999.90;999.90;;;16.30;99.90;;;;;;5013909;28;20099;-86
2022/10/17 06:25:30;;;;;;;1999.90;999.90;;;16.30;99.90;;;;;;5014404;28;20053;-86
2022/10/17 06:27:55;;;;;;;1999.90;999.90;;;16.40;1.00;;;;;;5013676;28;20107;-86
2022/10/17 06:30:21;;;;;;;1999.90;999.90;;;16.40;99.90;;;;;;5014332;28;20046;-85
2022/10/17 06:32:47;;;;;;;1999.90;999.90;;;16.40;99.90;;;;;;5013818;28;20518;-85
2022/10/17 06:35:13;;;;;;;1999.90;999.90;;;16.50;1.00;;;;;;5014289;28;20046;-85
2022/10/17 06:37:39;;;;;;;1999.90;999.90;;;16.50;99.90;;;;;;5014084;28;20124;-86
2022/10/17 06:40:07;;;;;;;1999.90;999.90;;;16.50;99.90;;;;;;5012851;28;20097;-86
2022/10/17 06:42:33;;;;;;;1999.90;999.90;;;16.60;99.90;;;;;;5013737;28;20053;-86
2022/10/17 06:44:59;;;;;;;1999.90;999.90;;;16.70;99.90;;;;;;5012370;28;20045;-85
2022/10/17 06:47:25;;;;;;;1999.90;999.90;;;16.60;99.90;;;;;;5013922;28;20049;-85
2022/10/17 06:49:50;;;;;;;1999.90;999.90;;;16.70;99.90;;;;;;5013635;28;20045;-85
2022/10/17 06:52:16;;;;;;;1999.90;999.90;;;16.80;99.90;;;;;;5013696;28;20056;-86
2022/10/17 06:54:43;;;;;;;1999.90;999.90;;;16.90;99.90;;;;;;5012664;28;20034;-86
2022/10/17 06:57:09;;;;;;;1999.90;999.90;;;17.00;99.90;;;;;;5012158;28;20077;-86
2022/10/17 06:59:35;;;;;;;1999.90;999.90;;;17.10;99.90;;;;;;5012831;28;20050;-86
2022/10/17 07:02:01;;;;;;;1999.90;999.90;;;17.10;99.90;;;;;;5012153;28;20445;-85
2022/10/17 07:04:27;;;;;;;1999.90;999.90;;;17.20;99.90;;;;;;5013609;28;20085;-86
2022/10/17 07:06:53;;;;;;;1999.90;999.90;;;17.30;32.20;;;;;;5013259;28;20193;-85
2022/10/17 07:09:19;;;;;;;1999.90;999.90;;;17.30;1.00;;;;;;5013532;28;20430;-86
2022/10/17 07:11:45;;;;;;;1999.90;999.90;;;17.40;1.00;;;;;;5013102;28;20046;-86
2022/10/17 07:14:11;;;;;;;1999.90;999.90;;;17.50;99.90;;;;;;5013244;28;20053;-86
2022/10/17 07:16:37;;;;;;;1999.90;999.90;;;17.50;99.90;;;;;;5012543;28;20402;-86
2022/10/17 07:19:02;;;;;;;1999.90;999.90;;;17.60;99.90;;;;;;5013111;28;20096;-86
2022/10/17 07:21:28;;;;;;;1999.90;999.90;;;17.70;2.90;;;;;;5013147;28;20583;-86
2022/10/17 07:23:54;;;;;;;1999.90;999.90;;;17.80;1.00;;;;;;5012133;28;20052;-86
2022/10/17 07:26:20;;;;;;;1999.90;999.90;;;17.80;99.90;;;;;;5013393;28;20054;-86
2022/10/17 07:28:50;;;;;;;1999.90;999.90;;;17.80;99.90;;;;;;4995487;28;20402;-86
2022/10/17 07:31:18;;;;;;;1999.90;999.90;;;17.80;99.90;;;;;;4995702;28;20135;-86
2022/10/17 07:33:44;;;;;;;1999.90;999.90;;;17.90;99.90;;;;;;5013056;28;20042;-86
2022/10/17 07:36:11;;;;;;;1999.90;999.90;;;17.90;22.60;;;;;;5012898;28;20108;-86
2022/10/17 07:38:37;;;;;;;1999.90;999.90;;;17.90;23.80;;;;;;5013138;28;20133;-87
2022/10/17 07:41:05;;;;;;;1999.90;999.90;;;17.90;12.10;;;;;;5012849;28;20058;-85
2022/10/17 07:43:32;;;;;;;1999.90;999.90;;;18.00;1.00;;;;;;5012638;28;20064;-85
2022/10/17 07:45:59;;;;;;;1999.90;999.90;;;18.00;1.00;;;;;;5012764;28;20104;-85
2022/10/17 07:48:24;;;;;;;1999.90;999.90;;;18.10;1.00;;;;;;5013058;28;20108;-86
2022/10/17 07:50:50;;;;;;;1999.90;999.90;;;18.10;1.00;;;;;;5013000;28;20518;-86
2022/10/17 07:53:16;;;;;;;1999.90;999.90;;;18.20;99.90;;;;;;5012527;28;20467;-85
2022/10/17 07:55:43;;;;;;;1999.90;999.90;;;18.30;99.90;;;;;;5011998;28;20050;-86
2022/10/17 07:58:09;;;;;;;1999.90;999.90;;;18.30;99.90;;;;;;5010904;28;20065;-86
2022/10/17 08:00:38;;;;;;;1999.90;999.90;;;18.20;99.90;;;;;;5011942;28;20046;-86
2022/10/17 08:03:04;;;;;;;1999.90;999.90;;;18.20;99.90;;;;;;5012137;28;20046;-86
2022/10/17 08:05:31;;;;;;;1999.90;999.90;;;18.20;99.90;;;;;;5011090;28;20214;-86
2022/10/17 08:07:56;;;;;;;1999.90;999.90;;;18.30;99.90;;;;;;5011748;28;20049;-87
2022/10/17 08:10:27;;;;;;;1999.90;999.90;;;18.40;99.90;;;;;;5012461;28;20544;-86
2022/10/17 08:12:56;;;;;;;1999.90;999.90;;;18.50;99.90;;;;;;5011436;28;20061;-86
2022/10/17 08:15:22;;;;;;;1999.90;999.90;;;18.60;89.90;;;;;;5012502;28;20049;-86
2022/10/17 08:17:48;;;;;;;1999.90;999.90;;;18.70;12.00;;;;;;5012671;28;20073;-86
2022/10/17 08:20:14;;;;;;;1999.90;999.90;;;18.80;1.00;;;;;;5012597;28;20478;-85
2022/10/17 08:22:40;;;;;;;1999.90;999.90;;;18.90;1.00;;;;;;5011414;28;20046;-86
2022/10/17 08:25:06;;;;;;;1999.90;999.90;;;18.90;1.00;;;;;;5012311;28;20046;-86
2022/10/17 08:27:33;;;;;;;1999.90;999.90;;;18.80;99.90;;;;;;5012302;28;20068;-86
2022/10/17 08:29:59;;;;;;;1999.90;999.90;;;18.80;99.90;;;;;;5012611;28;20056;-86
2022/10/17 08:32:27;;;;;;;1999.90;999.90;;;18.90;99.90;;;;;;5012539;28;20085;-86
2022/10/17 08:34:53;;;;;;;;;;;18.90;99.90;;;;;;5016947;28;20058;-86
2022/10/17 08:37:18;;;;;;;1999.90;999.90;;;18.80;99.90;;;;;;5015131;28;19921;-86
2022/10/17 08:39:44;;;;;;;1999.90;999.90;;;18.90;99.90;;;;;;5016702;28;20104;-86
2022/10/17 08:42:31;;;;;;;1999.90;999.90;;;18.90;99.90;;;;;;5014671;28;20048;-86
2022/10/17 08:45:07;;;;;;;1999.90;999.90;;;18.90;99.90;;;;;;5016160;28;20096;-86
2022/10/17 08:47:43;;;;;;;1999.90;999.90;;;18.90;99.90;;;;;;5016301;28;20446;-86
2022/10/17 08:50:17;;;;;;;1999.90;999.90;;;18.90;99.90;;;;;;5015986;28;20069;-87
2022/10/17 08:53:01;;;;;;;1999.90;999.90;;;18.90;99.90;;;;;;5016008;28;20112;-85
2022/10/17 08:55:33;;;;;;;1999.90;999.90;;;18.90;99.90;;;;;;5015764;28;20096;-85
2022/10/17 08:57:59;;;;;;;1999.90;999.90;;;18.90;99.90;;;;;;5014606;28;20093;-86
2022/10/17 09:00:26;;;;;;;1999.90;999.90;;;18.90;99.90;;;;;;5014763;28;20053;-85
2022/10/17 09:03:04;;;;;;;1999.90;999.90;;;18.90;99.90;;;;;;5015851;28;20092;-86
2022/10/17 09:05:34;;;;;;;1999.90;999.90;;;18.90;99.90;;;;;;5015294;28;20058;-87
2022/10/17 09:08:22;;;;;;;1999.90;999.90;;;19.00;99.90;;;;;;5031227;28;20458;-86
2022/10/17 09:10:59;;;;;;;1999.90;999.90;;;19.10;99.90;;;;;;5015883;28;20134;-85
2022/10/17 09:13:51;;;;;;;1999.90;999.90;;;19.00;99.90;;;;;;5014026;28;20042;-87
2022/10/17 09:16:37;;;;;;;1999.90;999.90;;;19.10;99.90;;;;;;5015446;28;20045;-85
2022/10/17 09:19:14;;;;;;;1999.90;999.90;;;19.10;99.90;;;;;;5015652;28;20048;-85
2022/10/17 09:21:44;;;;;;;1999.90;999.90;;;19.10;99.90;;;;;;5015619;28;20057;-86
2022/10/17 09:24:19;;;;;;;1999.90;999.90;;;19.10;99.90;;;;;;5015082;28;20038;-86
2022/10/17 09:26:45;;;;;;;1999.90;999.90;;;19.10;99.90;;;;;;5015142;28;20042;-86
2022/10/17 09:29:20;;;;;;;1999.90;999.90;;;19.10;99.90;;;;;;5014156;28;20052;-85
2022/10/17 09:32:17;;;;;;;1999.90;999.90;;;19.20;99.90;;;;;;5015725;28;20053;-85
2022/10/17 09:34:43;;;;;;;1999.90;999.90;;;19.20;99.90;;;;;;5015394;28;20049;-86
2022/10/17 09:37:13;;;;;;;1999.90;999.90;;;19.20;99.90;;;;;;5015146;28;20556;-85
2022/10/17 09:39:40;;;;;;;1999.90;999.90;;;19.20;99.90;;;;;;5015414;28;20049;-86
2022/10/17 09:42:11;;;;;;;1999.90;999.90;;;19.10;99.90;;;;;;5014569;28;20046;-86
2022/10/17 09:44:49;;;;;;;1999.90;999.90;;;19.00;1.00;;;;;;4997514;28;20574;-86
2022/10/17 09:47:36;;;;;;;1999.90;999.90;;;18.90;1.00;;;;;;5013559;28;20049;-87
2022/10/17 09:50:07;;;;;;;1999.90;999.90;;;18.90;35.50;;;;;;5015208;28;20171;-86
2022/10/17 09:52:38;;;;;;;1999.90;999.90;;;18.90;99.90;;;;;;5013728;28;20111;-86
2022/10/17 09:55:37;;;;;;;1999.90;999.90;;;18.80;99.90;;;;;;5014956;28;20046;-87
2022/10/17 09:58:05;;;;;;;1999.90;999.90;;;18.70;1.00;;;;;;5014577;28;20049;-89
2022/10/17 10:00:40;;;;;;;1999.90;999.90;;;18.70;99.90;;;;;;5013675;28;20096;-89
2022/10/17 10:03:24;;;;;;;1999.90;999.90;;;18.60;1.00;;;;;;5014836;28;20537;-87
2022/10/17 10:06:16;;;;;;;1999.90;999.90;;;18.60;99.90;;;;;;5014745;28;20066;-87
2022/10/17 10:08:51;;;;;;;1999.90;999.90;;;18.60;99.90;;;;;;5014685;28;20057;-86
2022/10/17 10:11:22;;;;;;;1999.90;999.90;;;18.70;1.00;;;;;;5013500;28;20478;-87
2022/10/17 10:13:48;;;;;;;1999.90;999.90;;;19.10;99.90;;;;;;5014250;28;20097;-86
2022/10/17 10:16:29;;;;;;;1999.90;999.90;;;18.70;99.90;;;;;;5014596;28;20494;-85
2022/10/17 10:18:55;;;;;;;1999.90;999.90;;;19.30;99.90;;;;;;5014594;28;20042;-85
2022/10/17 10:21:23;;;;;;;1999.90;999.90;;;18.80;99.90;;;;;;5014169;28;20056;-87
2022/10/17 10:23:58;;;;;;;1999.90;999.90;;;18.80;99.90;;;;;;5014464;28;20410;-86
2022/10/17 10:26:28;;;;;;;1999.90;999.90;;;19.10;99.90;;;;;;4996852;28;20058;-87
2022/10/17 10:28:57;;;;;;;1999.90;999.90;;;18.90;99.90;;;;;;5013991;28;20092;-87
2022/10/17 10:31:33;;;;;;;1999.90;999.90;;;19.50;99.90;;;;;;5013998;28;20038;-86
2022/10/17 10:34:01;;;;;;;1999.90;999.90;;;20.00;99.90;;;;;;5014247;28;20487;-86
2022/10/17 10:36:47;;;;;;;1999.90;999.90;;;19.90;99.90;;;;;;5014116;28;20050;-85
2022/10/17 10:39:29;;;;;;;1999.90;999.90;;;18.80;99.90;;;;;;5013541;28;20053;-84
2022/10/17 10:41:55;;;;;;;1999.90;999.90;;;20.00;99.90;;;;;;5013769;28;20215;-84
2022/10/17 10:44:25;;;;;;;1999.90;999.90;;;18.80;99.90;;;;;;5012648;28;20383;-84
2022/10/17 10:47:20;;;;;;;1999.90;999.90;;;19.80;99.90;;;;;;5013955;28;20046;-84
2022/10/17 10:49:47;;;;;;;1999.90;999.90;;;19.80;99.90;;;;;;5013187;28;20045;-82
2022/10/17 10:52:53;;;;;;;1999.90;999.90;;;19.40;99.90;;;;;;5013884;28;20052;-82
2022/10/17 10:55:25;;;;;;;1999.90;999.90;;;19.00;99.90;;;;;;4999210;28;20066;-83
2022/10/17 10:57:56;;;;;;;1999.90;999.90;;;19.50;99.90;;;;;;5013571;28;20399;-83
2022/10/17 11:00:26;;;;;;;1999.90;999.90;;;19.70;99.90;;;;;;5012153;28;20572;-82
2022/10/17 11:03:01;;;;;;;1999.90;999.90;;;20.30;99.90;;;;;;4996409;28;20069;-83
2022/10/17 11:05:45;;;;;;;1999.90;999.90;;;20.30;99.90;;;;;;5013219;28;20045;-83
2022/10/17 11:08:28;;;;;;;1999.90;999.90;;;20.20;99.90;;;;;;5013656;28;20046;-84
2022/10/17 11:11:39;;;;;;;1999.90;999.90;;;19.20;99.90;;;;;;5013688;28;20042;-83
2022/10/17 11:14:20;;;;;;;1999.90;999.90;;;20.50;99.90;;;;;;4976853;28;20129;-82
2022/10/17 11:17:04;;;;;;;1999.90;999.90;;;19.80;99.90;;;;;;5013272;28;20045;-82
2022/10/17 11:19:40;;;;;;;1999.90;999.90;;;19.40;99.90;;;;;;5013439;28;20451;-81
2022/10/17 11:22:22;;;;;;;1999.90;999.90;;;20.30;99.90;;;;;;5013630;28;20085;-83
2022/10/17 11:25:10;;;;;;;1999.90;999.90;;;19.50;99.90;;;;;;5013402;28;20048;-82
2022/10/17 11:27:37;;;;;;;1999.90;999.90;;;20.50;99.90;;;;;;5013220;28;20050;-80
2022/10/17 11:30:03;;;;;;;1999.90;999.90;;;19.50;99.90;;;;;;5014049;28;20049;-81
2022/10/17 11:32:43;;;;;;;1999.90;999.90;;;20.60;99.90;;;;;;5011885;28;20487;-81
2022/10/17 11:35:27;;;;;;;1999.90;999.90;;;20.60;99.90;;;;;;5013299;28;20092;-82
2022/10/17 11:38:17;;;;;;;1999.90;999.90;;;19.60;99.90;;;;;;5013197;28;20046;-81
2022/10/17 11:40:50;;;;;;;1999.90;999.90;;;19.70;99.90;;;;;;5011950;28;20060;-81
2022/10/17 11:43:26;;;;;;;1999.90;999.90;;;20.50;99.90;;;;;;5012954;28;20054;-81
2022/10/17 11:45:56;;;;;;;1999.90;999.90;;;20.60;99.90;;;;;;5013190;28;20128;-81
2022/10/17 11:48:38;;;;;;;1999.90;999.90;;;19.90;99.90;;;;;;5013153;28;20046;-81
2022/10/17 11:51:07;;;;;;;1999.90;999.90;;;20.30;99.90;;;;;;5013191;28;20107;-84
2022/10/17 11:53:43;;;;;;;1999.90;999.90;;;20.60;99.90;;;;;;5012538;28;20417;-82
2022/10/17 11:56:11;;;;;;;1999.90;999.90;;;19.60;99.90;;;;;;5012921;28;20045;-82
2022/10/17 11:58:48;;;;;;;;;;;20.80;99.90;;;;;;5012704;28;20107;-82
2022/10/17 12:01:30;;;;;;;1999.90;999.90;;;20.80;99.90;;;;;;5012887;28;19925;-82
2022/10/17 12:04:14;;;;;;;1999.90;999.90;;;20.50;99.90;;;;;;5012849;28;20104;-82
2022/10/17 12:06:54;;;;;;;1999.90;999.90;;;21.10;99.90;;;;;;5012074;28;20065;-81
2022/10/17 12:10:02;;;;;;;1999.90;999.90;;;21.10;99.90;;;;;;5032042;28;20188;-81
2022/10/17 12:12:33;;;;;;;1999.90;999.90;;;21.10;99.90;;;;;;5002435;28;20065;-82
2022/10/17 12:15:25;;;;;;;1999.90;999.90;;;20.90;99.90;;;;;;5016880;28;20449;-82
2022/10/17 12:18:01;;;;;;;1999.90;999.90;;;20.40;99.90;;;;;;5012581;28;20058;-79
2022/10/17 12:20:29;;;;;;;1999.90;999.90;;;20.10;99.90;;;;;;5016551;28;20046;-81
2022/10/17 12:23:01;;;;;;;1999.90;999.90;;;20.50;99.90;;;;;;5015318;28;20057;-82